Cyclone, Texas
Current Conditions -  °F | °C
As of 10:15 AM on Thursday 27 Nov 2014 (Local Time) from KT35 Reporting Station
Clear Clear  
Wind Chill: 52°   Ceiling: Unl
Heat Index: 52°   Visibility: 10mi
Dew Point: 33°   Wind: 5mph
Humidity: 48%   Direction: 20°NNE
Pressure: 30.54"   Gusts: NA
Location:  30.9882°N, 97.103°W
Report Text: KT35 271615Z AUTO 02004KT 10SM CLR 11/00 A3054 RMK AO2 T01110003
Loading
Personal Weather Stations






























Interactive Weather Map New forecast layout! Learn more

10-Day Weather Forecast

Advertisements
Track Severe Weather on mobile